Time;durP1;ratioP1;P1;durP2;ratioP2;P2;SDS_P1;SDS_P2;PMS_P1;PMS_P2;Temp;Humidity;BMP_temperature;BMP_pressure;BME280_temperature;BME280_humidity;BME280_pressure;Samples;Min_cycle;Max_cycle;Signal;HPM_P1;HPM_P2
2022/11/14 00:02:12;;;;;;;20.40;10.85;;;;;;;4.07;72.88;95919.16;5049499;28;20021;-69
2022/11/14 00:04:37;;;;;;;16.52;11.10;;;;;;;3.97;73.01;95919.53;5033418;28;20033;-69
2022/11/14 00:07:03;;;;;;;15.73;10.50;;;;;;;3.93;72.81;95915.44;5048755;28;20032;-69
2022/11/14 00:09:28;;;;;;;19.08;11.43;;;;;;;3.81;72.81;95903.03;5051742;28;20033;-69
2022/11/14 00:11:54;;;;;;;16.45;10.43;;;;;;;3.77;73.28;95907.47;5033726;28;20038;-69
2022/11/14 00:14:19;;;;;;;17.35;10.90;;;;;;;3.81;73.10;95923.59;5051223;28;20025;-69
2022/11/14 00:16:45;;;;;;;18.35;10.70;;;;;;;3.63;73.54;95911.47;5050097;28;20513;-69
2022/11/14 00:19:11;;;;;;;15.60;10.10;;;;;;;3.54;73.98;95900.66;5033578;28;20047;-69
2022/11/14 00:21:36;;;;;;;16.33;10.60;;;;;;;3.64;73.41;95913.13;5033421;28;20483;-69
2022/11/14 00:24:01;;;;;;;18.77;11.55;;;;;;;3.55;72.90;95916.91;5051178;28;20028;-69
2022/11/14 00:26:27;;;;;;;17.73;10.45;;;;;;;3.37;72.70;95885.00;5051380;28;20498;-69
2022/11/14 00:28:53;;;;;;;13.60;9.32;;;;;;;3.51;72.94;95921.31;5049882;28;20087;-69
2022/11/14 00:31:18;;;;;;;13.82;8.48;;;;;;;3.54;73.06;95918.63;5049626;28;20033;-69
2022/11/14 00:33:44;;;;;;;12.77;8.65;;;;;;;3.47;73.58;95921.47;5051107;28;20040;-69
2022/11/14 00:36:09;;;;;;;12.43;8.20;;;;;;;3.51;73.50;95926.47;5051011;28;20025;-69
2022/11/14 00:38:35;;;;;;;13.80;9.32;;;;;;;3.39;74.39;95919.19;5049586;28;20037;-69
2022/11/14 00:41:00;;;;;;;13.55;9.35;;;;;;;3.39;74.99;95914.03;5051181;28;20025;-69
2022/11/14 00:43:26;;;;;;;12.38;8.65;;;;;;;3.34;75.47;95906.53;5060678;28;20499;-69
2022/11/14 00:45:51;;;;;;;13.80;9.38;;;;;;;3.35;75.04;95922.78;5052987;28;20418;-69
2022/11/14 00:48:16;;;;;;;13.68;8.77;;;;;;;3.26;75.02;95923.97;5069502;28;20044;-69
2022/11/14 00:50:42;;;;;;;14.00;8.40;;;;;;;3.46;74.42;95914.69;5070834;28;20025;-68
2022/11/14 00:53:08;;;;;;;15.43;9.60;;;;;;;3.54;75.05;95913.50;5052901;28;20499;-69
2022/11/14 00:55:33;;;;;;;14.07;9.55;;;;;;;3.57;76.13;95903.09;5070739;28;20028;-69
2022/11/14 00:57:58;;;;;;;16.75;10.43;;;;;;;3.61;76.73;95910.69;5070848;28;20032;-69
2022/11/14 01:00:24;;;;;;;16.48;10.73;;;;;;;3.70;76.79;95908.59;5070728;28;20058;-69
2022/11/14 01:02:49;;;;;;;17.30;10.05;;;;;;;3.72;76.24;95913.69;5069705;28;20033;-69
2022/11/14 01:05:15;;;;;;;12.20;8.88;;;;;;;3.71;75.31;95905.13;5069585;28;20029;-69
2022/11/14 01:07:40;;;;;;;18.13;11.90;;;;;;;3.65;75.50;95897.66;5069451;28;20064;-69
2022/11/14 01:10:06;;;;;;;16.75;10.32;;;;;;;3.70;74.81;95905.19;5052705;28;20036;-69
2022/11/14 01:12:33;;;;;;;16.40;10.02;;;;;;;3.61;74.36;95902.97;5070541;28;20104;-69
2022/11/14 01:14:58;;;;;;;16.65;10.55;;;;;;;3.61;74.07;95897.84;5052717;28;20040;-69
2022/11/14 01:17:23;;;;;;;20.85;13.88;;;;;;;3.61;74.07;95903.81;5086159;28;20024;-69
2022/11/14 01:19:49;;;;;;;21.63;13.10;;;;;;;3.41;74.78;95878.88;5069390;28;20041;-69
2022/11/14 01:22:14;;;;;;;24.60;14.13;;;;;;;3.46;76.57;95894.13;5069363;28;20551;-69
2022/11/14 01:24:40;;;;;;;20.38;12.68;;;;;;;3.64;77.86;95897.72;5069127;28;20078;-69
2022/11/14 01:27:05;;;;;;;21.65;12.90;;;;;;;3.58;77.40;95891.06;5069599;28;20029;-69
2022/11/14 01:29:31;;;;;;;17.42;10.07;;;;;;;3.51;78.14;95889.63;5070762;28;20033;-69
2022/11/14 01:31:56;;;;;;;16.20;10.30;;;;;;;3.68;77.64;95878.72;5085835;28;20055;-69
2022/11/14 01:34:22;;;;;;;14.55;9.43;;;;;;;3.84;77.13;95868.66;5070777;28;20032;-69
2022/11/14 01:36:47;;;;;;;13.02;8.80;;;;;;;3.75;77.46;95862.16;5072994;28;20032;-70
2022/11/14 01:39:13;;;;;;;14.80;9.18;;;;;;;3.83;77.55;95872.13;5072853;28;20045;-69
2022/11/14 01:41:38;;;;;;;14.60;9.15;;;;;;;3.83;77.49;95856.72;5074163;28;20028;-69
2022/11/14 01:44:10;;;;;;;12.80;8.98;;;;;;;3.84;77.06;95861.78;5039961;28;20048;-69
2022/11/14 01:46:37;;;;;;;23.58;13.77;;;;;;;3.83;77.96;95860.13;5052941;28;20538;-69
2022/11/14 01:49:13;;;;;;;16.70;10.88;;;;;;;3.85;78.14;95858.34;5052911;28;20041;-70
2022/11/14 01:52:05;;;;;;;24.67;14.73;;;;;;;4.03;77.13;95857.56;5053067;28;20029;-69
2022/11/14 01:54:36;;;;;;;25.10;14.77;;;;;;;3.98;77.09;95861.22;5052647;28;20108;-69
2022/11/14 01:57:01;;;;;;;22.25;13.20;;;;;;;3.92;76.36;95859.75;5053160;28;20033;-69
2022/11/14 01:59:37;;;;;;;20.88;12.70;;;;;;;3.89;76.19;95857.28;5052687;28;20045;-69
2022/11/14 02:02:07;;;;;;;17.92;11.45;;;;;;;3.79;75.81;95849.13;5052504;28;20036;-69
2022/11/14 02:04:35;;;;;;;14.68;9.30;;;;;;;3.84;75.17;95858.38;5052713;28;20121;-70
2022/11/14 02:07:02;;;;;;;15.18;10.27;;;;;;;3.88;74.58;95855.63;5052528;28;20056;-70
2022/11/14 02:09:28;;;;;;;12.93;8.82;;;;;;;3.86;74.51;95854.84;5052295;28;20037;-69
2022/11/14 02:11:54;;;;;;;13.20;8.75;;;;;;;3.83;74.14;95857.53;5052427;28;20025;-69
2022/11/14 02:14:19;;;;;;;12.30;8.43;;;;;;;3.73;74.32;95845.94;5053880;28;20033;-68
2022/11/14 02:16:45;;;;;;;11.57;8.00;;;;;;;3.65;74.42;95850.53;5052313;28;20037;-68
2022/11/14 02:19:12;;;;;;;14.55;9.18;;;;;;;3.57;75.04;95848.31;5035621;28;20033;-69
2022/11/14 02:21:38;;;;;;;13.13;8.18;;;;;;;3.44;74.99;95818.84;5052196;28;20029;-69
2022/11/14 02:24:07;;;;;;;13.45;8.88;;;;;;;3.59;74.68;95856.75;5052213;28;20554;-69
2022/11/14 02:26:33;;;;;;;12.07;8.30;;;;;;;3.69;73.02;95852.13;5053291;28;20104;-68
2022/11/14 02:28:58;;;;;;;13.70;8.90;;;;;;;3.58;72.84;95858.50;5052003;28;20068;-68
2022/11/14 02:31:24;;;;;;;13.82;9.50;;;;;;;3.41;72.63;95855.75;5051970;28;20087;-68
2022/11/14 02:33:49;;;;;;;13.85;9.23;;;;;;;3.46;72.63;95853.84;5052122;28;20114;-69
2022/11/14 02:36:14;;;;;;;16.80;10.70;;;;;;;3.40;72.61;95858.38;5060034;28;20051;-69
2022/11/14 02:38:40;;;;;;;14.82;10.15;;;;;;;3.34;72.22;95854.28;5071796;28;20037;-69
2022/11/14 02:41:05;;;;;;;15.55;10.18;;;;;;;3.24;71.17;95827.31;5071872;28;20021;-69
2022/11/14 02:43:31;;;;;;;24.13;14.40;;;;;;;3.16;71.81;95849.88;5071729;28;20032;-68
2022/11/14 02:45:56;;;;;;;27.40;17.13;;;;;;;3.30;69.89;95852.75;5072315;28;20509;-68
2022/11/14 02:48:22;;;;;;;30.95;17.27;;;;;;;3.30;69.22;95850.19;5070862;28;20568;-68
2022/11/14 02:50:48;;;;;;;30.02;17.55;;;;;;;3.28;68.75;95854.53;5072530;28;20024;-69
2022/11/14 02:53:13;;;;;;;29.60;16.42;;;;;;;2.98;69.05;95846.22;5071905;28;20032;-69
2022/11/14 02:55:39;;;;;;;25.98;16.13;;;;;;;2.66;69.22;95851.63;5054983;28;20028;-68
2022/11/14 02:58:04;;;;;;;27.40;16.42;;;;;;;2.69;69.73;95843.81;5072822;28;20094;-68
2022/11/14 03:00:29;;;;;;;33.95;18.98;;;;;;;2.69;70.08;95851.53;5054674;28;20024;-68
2022/11/14 03:02:55;;;;;;;26.65;16.25;;;;;;;2.55;69.93;95848.63;5071356;28;20082;-68
2022/11/14 03:05:20;;;;;;;28.63;16.80;;;;;;;2.32;70.14;95840.88;5054722;28;20486;-68
2022/11/14 03:07:46;;;;;;;32.58;19.52;;;;;;;2.10;70.81;95851.84;5071355;28;20094;-68
2022/11/14 03:10:12;;;;;;;26.73;16.42;;;;;;;2.13;70.15;95841.50;5071466;28;20029;-68
2022/11/14 03:12:38;;;;;;;29.67;18.17;;;;;;;2.08;70.12;95845.94;5071195;28;20444;-68
2022/11/14 03:15:04;;;;;;;31.50;17.75;;;;;;;1.97;70.25;95848.84;5054574;28;20028;-69
2022/11/14 03:17:31;;;;;;;28.00;16.98;;;;;;;1.90;70.15;95849.94;5072540;28;20028;-68
2022/11/14 03:19:56;;;;;;;31.05;18.67;;;;;;;1.79;70.68;95847.72;5071245;28;20122;-68
2022/11/14 03:22:22;;;;;;;33.47;20.08;;;;;;;1.77;71.60;95849.50;5071231;28;20028;-68
2022/11/14 03:24:47;;;;;;;32.78;19.17;;;;;;;1.83;71.90;95839.94;5071156;28;20062;-68
2022/11/14 03:27:13;;;;;;;31.98;18.98;;;;;;;1.81;71.11;95834.03;5072198;28;20024;-68
2022/11/14 03:29:38;;;;;;;35.55;19.40;;;;;;;1.68;72.23;95839.53;5072502;28;20036;-69
2022/11/14 03:32:04;;;;;;;29.95;18.95;;;;;;;1.73;72.04;95844.53;5070949;28;20059;-68
2022/11/14 03:34:29;;;;;;;31.02;18.63;;;;;;;1.87;71.65;95842.38;5072366;28;20056;-68
2022/11/14 03:36:55;;;;;;;31.00;17.05;;;;;;;1.99;71.69;95848.81;5072038;28;20508;-68
2022/11/14 03:39:20;;;;;;;39.95;23.05;;;;;;;1.78;71.75;95843.50;5072194;28;20505;-69
2022/11/14 03:41:46;;;;;;;37.78;21.77;;;;;;;1.68;72.94;95838.72;5054100;28;20028;-68
2022/11/14 03:44:11;;;;;;;40.10;22.08;;;;;;;1.65;73.05;95844.78;5054023;28;20398;-68
2022/11/14 03:46:37;;;;;;;45.10;23.30;;;;;;;1.53;73.67;95848.56;5037264;28;20110;-68
2022/11/14 03:49:02;;;;;;;49.55;24.75;;;;;;;1.48;74.48;95841.91;5053899;28;20036;-68
2022/11/14 03:51:27;;;;;;;50.25;24.13;;;;;;;1.47;74.85;95846.16;5071702;28;20025;-68
2022/11/14 03:53:53;;;;;;;50.80;25.90;;;;;;;1.47;75.38;95845.34;5070228;28;20029;-69
2022/11/14 03:56:18;;;;;;;52.55;25.50;;;;;;;1.46;75.58;95836.81;5071685;28;20029;-69
2022/11/14 03:58:44;;;;;;;45.08;24.38;;;;;;;1.42;76.50;95836.94;5069710;28;20517;-68
2022/11/14 04:01:09;;;;;;;43.92;23.52;;;;;;;1.41;76.47;95835.28;5071822;28;20490;-69
2022/11/14 04:03:35;;;;;;;46.50;23.13;;;;;;;1.35;77.26;95833.75;5053655;28;20406;-68
2022/11/14 04:06:00;;;;;;;48.65;25.00;;;;;;;1.38;77.07;95837.94;5071460;28;20021;-69
2022/11/14 04:08:25;;;;;;;48.47;24.50;;;;;;;1.46;76.91;95843.66;5071251;28;20028;-69
2022/11/14 04:10:51;;;;;;;48.17;24.52;;;;;;;1.45;77.59;95845.41;5071433;28;20032;-68
2022/11/14 04:13:16;;;;;;;44.65;23.23;;;;;;;1.52;77.32;95841.75;5070076;28;20082;-68
2022/11/14 04:15:42;;;;;;;46.80;23.38;;;;;;;1.56;78.02;95840.78;5069918;28;20074;-69
2022/11/14 04:18:07;;;;;;;47.05;25.10;;;;;;;1.52;77.71;95844.31;5070165;28;20040;-69
2022/11/14 04:20:33;;;;;;;45.58;25.10;;;;;;;1.52;77.81;95834.06;5071042;28;20498;-69
2022/11/14 04:22:58;;;;;;;43.33;22.33;;;;;;;1.61;78.38;95822.69;5071032;28;20028;-68
2022/11/14 04:25:24;;;;;;;45.72;22.40;;;;;;;1.72;78.23;95819.78;5069961;28;20032;-69
2022/11/14 04:27:49;;;;;;;38.47;22.20;;;;;;;1.82;77.94;95826.28;5070970;28;20040;-68
2022/11/14 04:30:15;;;;;;;44.75;21.35;;;;;;;1.62;78.22;95826.94;5069929;28;20062;-68
2022/11/14 04:32:41;;;;;;;48.45;23.33;;;;;;;1.27;78.63;95802.41;5069767;28;20052;-68
2022/11/14 04:35:06;;;;;;;55.30;24.60;;;;;;;1.38;79.66;95820.84;5069729;28;20086;-69
2022/11/14 04:37:32;;;;;;;48.50;24.25;;;;;;;1.36;80.08;95821.78;5071173;28;20100;-69
2022/11/14 04:39:59;;;;;;;54.50;24.60;;;;;;;1.36;80.57;95821.78;5069692;28;20025;-69
2022/11/14 04:42:25;;;;;;;51.47;25.88;;;;;;;1.54;81.50;95829.72;5069662;28;20085;-69
2022/11/14 04:44:50;;;;;;;52.53;27.60;;;;;;;1.62;80.66;95811.56;5069666;28;20029;-68
2022/11/14 04:47:16;;;;;;;52.25;27.98;;;;;;;1.72;80.28;95820.63;5069754;28;20036;-68
2022/11/14 04:49:41;;;;;;;45.45;25.13;;;;;;;1.61;80.37;95786.81;5069748;28;20060;-69
2022/11/14 04:52:07;;;;;;;43.72;24.67;;;;;;;1.77;80.63;95829.00;5069679;28;20040;-68
2022/11/14 04:54:32;;;;;;;47.97;24.08;;;;;;;1.73;81.02;95832.56;5069756;28;20016;-68
2022/11/14 04:56:58;;;;;;;47.20;25.33;;;;;;;1.72;81.03;95824.91;5070846;28;20040;-68
2022/11/14 04:59:23;;;;;;;51.20;25.92;;;;;;;1.44;80.35;95812.13;5036195;28;20036;-69
2022/11/14 05:01:48;;;;;;;58.05;26.95;;;;;;;1.20;81.22;95806.91;5052827;28;20032;-68
2022/11/14 05:04:14;;;;;;;51.33;26.13;;;;;;;1.18;81.58;95824.03;5052820;28;20070;-68
2022/11/14 05:06:39;;;;;;;52.03;25.95;;;;;;;1.15;82.12;95821.56;5070670;28;20035;-68
2022/11/14 05:09:05;;;;;;;51.88;27.10;;;;;;;1.23;82.52;95827.28;5070947;28;20082;-68
2022/11/14 05:11:30;;;;;;;51.40;27.67;;;;;;;1.25;82.35;95824.66;5074251;28;20032;-68
2022/11/14 05:13:56;;;;;;;47.78;26.02;;;;;;;1.41;82.44;95831.00;5073570;28;20028;-68
2022/11/14 05:16:21;;;;;;;51.78;27.17;;;;;;;1.42;82.53;95821.59;5073512;28;20024;-69
2022/11/14 05:18:47;;;;;;;52.45;27.45;;;;;;;1.42;82.73;95837.81;5074806;28;20033;-68
2022/11/14 05:21:13;;;;;;;57.58;28.55;;;;;;;1.43;82.45;95838.63;5072448;28;20024;-68
2022/11/14 05:23:38;;;;;;;63.03;28.25;;;;;;;1.39;82.46;95842.16;5060956;28;20111;-68
2022/11/14 05:26:05;;;;;;;55.35;27.75;;;;;;;1.31;82.46;95848.38;5073392;28;20032;-68
2022/11/14 05:28:31;;;;;;;65.15;28.63;;;;;;;1.25;83.09;95842.56;5072196;28;20107;-68
2022/11/14 05:31:07;;;;;;;60.03;27.55;;;;;;;1.29;83.38;95844.19;5072907;28;20021;-68
2022/11/14 05:33:33;;;;;;;45.20;25.05;;;;;;;1.41;82.98;95848.09;5050701;28;20472;-68
2022/11/14 05:36:06;;;;;;;44.83;24.00;;;;;;;1.51;83.25;95841.81;5066091;28;20033;-68
2022/11/14 05:38:31;;;;;;;47.25;21.48;;;;;;;1.44;83.14;95841.13;5039703;28;20043;-68
2022/11/14 05:40:57;;;;;;;39.80;20.80;;;;;;;1.38;82.94;95841.34;5073054;28;20040;-68
2022/11/14 05:43:22;;;;;;;43.83;20.75;;;;;;;1.32;83.67;95847.47;5045523;28;20032;-68
2022/11/14 05:45:48;;;;;;;40.78;20.63;;;;;;;1.43;83.57;95834.34;5052949;28;20033;-68
2022/11/14 05:48:13;;;;;;;37.67;20.63;;;;;;;1.62;83.72;95839.75;5058527;28;20037;-68
2022/11/14 05:50:39;;;;;;;35.08;20.10;;;;;;;1.75;83.94;95843.56;5064508;28;20040;-68
2022/11/14 05:53:04;;;;;;;35.30;20.08;;;;;;;1.93;83.79;95852.41;5071186;28;20040;-68
2022/11/14 05:55:29;;;;;;;40.75;22.25;;;;;;;2.04;83.27;95852.06;5053648;28;20021;-68
2022/11/14 05:57:58;;;;;;;35.63;19.70;;;;;;;1.89;82.36;95816.66;5054606;28;20038;-69
2022/11/14 06:00:24;;;;;;;39.83;17.65;;;;;;;1.91;82.40;95853.34;5036053;28;20078;-69
2022/11/14 06:02:53;;;;;;;40.17;17.13;;;;;;;1.74;82.46;95846.19;5067959;28;20025;-68
2022/11/14 06:05:22;;;;;;;37.78;19.13;;;;;;;1.87;82.82;95859.47;5039278;28;20068;-68
2022/11/14 06:07:54;;;;;;;33.95;18.15;;;;;;;1.93;82.98;95861.81;5056466;28;20028;-70
2022/11/14 06:10:19;;;;;;;;;;;;;;;1.98;82.20;95857.41;5061758;28;20053;-68
2022/11/14 06:12:44;;;;;;;32.30;16.70;;;;;;;2.11;82.27;95847.56;5059787;28;20010;-68
2022/11/14 06:15:10;;;;;;;28.83;16.55;;;;;;;2.29;80.53;95864.06;5070252;28;20494;-68
2022/11/14 06:17:35;;;;;;;26.35;15.50;;;;;;;2.24;81.35;95856.53;5071389;28;20434;-68
2022/11/14 06:20:01;;;;;;;31.23;17.35;;;;;;;2.28;81.52;95860.66;5086813;28;20051;-68
2022/11/14 06:22:26;;;;;;;32.40;17.90;;;;;;;2.11;81.36;95856.09;5071165;28;20478;-68
2022/11/14 06:24:52;;;;;;;34.92;17.90;;;;;;;2.13;81.34;95864.56;5053389;28;20380;-68
2022/11/14 06:27:17;;;;;;;29.52;17.05;;;;;;;2.18;81.77;95864.44;5069965;28;20094;-68
2022/11/14 06:29:42;;;;;;;28.25;16.88;;;;;;;2.30;81.21;95868.31;5069752;28;20033;-68
2022/11/14 06:32:08;;;;;;;34.25;19.52;;;;;;;2.45;80.76;95857.50;5070167;28;20036;-68
2022/11/14 06:34:33;;;;;;;32.45;17.83;;;;;;;2.56;80.09;95868.22;5071084;28;20098;-68
2022/11/14 06:36:59;;;;;;;36.00;19.05;;;;;;;2.54;80.50;95866.63;5071212;28;20572;-68
2022/11/14 06:39:24;;;;;;;32.67;18.25;;;;;;;2.71;79.47;95868.63;5050977;28;20430;-68
2022/11/14 06:41:49;;;;;;;35.47;19.13;;;;;;;2.39;79.69;95857.72;5059666;28;20413;-68
2022/11/14 06:44:16;;;;;;;30.05;17.40;;;;;;;2.48;80.57;95860.00;5057294;28;20554;-69
2022/11/14 06:46:42;;;;;;;34.28;17.95;;;;;;;2.47;80.52;95860.88;5068919;28;20028;-68
2022/11/14 06:49:07;;;;;;;34.85;18.30;;;;;;;2.48;80.28;95854.88;5072435;28;20044;-68
2022/11/14 06:51:33;;;;;;;31.77;17.33;;;;;;;2.61;80.25;95868.91;5071166;28;20083;-68
2022/11/14 06:53:58;;;;;;;42.33;19.48;;;;;;;2.60;80.20;95862.13;5060840;28;20537;-68
2022/11/14 06:56:23;;;;;;;37.47;20.25;;;;;;;2.82;79.22;95846.81;5072824;28;20491;-68
2022/11/14 06:58:49;;;;;;;36.85;19.02;;;;;;;2.94;79.06;95847.25;5072042;28;20055;-68
2022/11/14 07:01:22;;;;;;;30.15;17.40;;;;;;;2.88;80.08;95848.31;5052768;28;20029;-69
2022/11/14 07:03:47;;;;;;;31.15;17.80;;;;;;;2.92;79.98;95842.16;5035029;28;20033;-69
2022/11/14 07:06:14;;;;;;;40.13;22.52;;;;;;;2.76;80.01;95811.09;5051742;28;20135;-68
2022/11/14 07:08:40;;;;;;;37.45;20.88;;;;;;;2.98;79.71;95843.66;5052382;28;20036;-68
2022/11/14 07:11:07;;;;;;;33.95;19.05;;;;;;;3.14;78.84;95847.34;5054533;28;20036;-70
2022/11/14 07:13:33;;;;;;;27.90;16.55;;;;;;;3.25;77.84;95847.78;5070542;28;20029;-68
2022/11/14 07:15:58;;;;;;;30.65;16.65;;;;;;;3.21;78.67;95847.97;5061896;28;20078;-68
2022/11/14 07:18:23;;;;;;;27.38;14.65;;;;;;;3.23;78.23;95841.03;5053590;28;20028;-68
2022/11/14 07:20:49;;;;;;;24.05;14.43;;;;;;;3.32;78.00;95851.81;5060245;28;20337;-68
2022/11/14 07:23:14;;;;;;;26.08;14.60;;;;;;;3.33;77.93;95850.06;5056952;28;20028;-68
2022/11/14 07:25:40;;;;;;;25.60;14.35;;;;;;;3.41;78.02;95852.34;5054432;28;20529;-68
2022/11/14 07:28:06;;;;;;;26.17;15.75;;;;;;;3.47;77.47;95847.81;5070979;28;20032;-68
2022/11/14 07:30:32;;;;;;;26.17;15.35;;;;;;;3.55;77.30;95835.50;5054285;28;20025;-69
2022/11/14 07:32:58;;;;;;;26.38;15.05;;;;;;;3.67;77.84;95833.34;5069045;28;20127;-67
2022/11/14 07:35:23;;;;;;;22.35;13.65;;;;;;;3.84;76.57;95836.06;5053427;28;20422;-69
2022/11/14 07:37:49;;;;;;;24.73;14.10;;;;;;;3.97;75.07;95842.41;5051478;28;20490;-70
2022/11/14 07:40:15;;;;;;;26.27;14.88;;;;;;;3.98;74.45;95835.53;5035244;28;20029;-73
2022/11/14 07:42:40;;;;;;;23.67;14.63;;;;;;;4.01;75.10;95836.25;5055770;28;20054;-71
2022/11/14 07:45:06;;;;;;;23.75;14.10;;;;;;;4.12;74.21;95837.53;5050444;28;20029;-71
2022/11/14 07:47:32;;;;;;;21.65;13.23;;;;;;;4.09;74.13;95837.66;5051744;28;20025;-72
2022/11/14 07:49:57;;;;;;;30.40;15.52;;;;;;;3.78;75.43;95838.91;5052031;28;20410;-71
2022/11/14 07:52:23;;;;;;;24.65;14.50;;;;;;;3.72;76.05;95827.13;5052067;28;20020;-72
2022/11/14 07:54:48;;;;;;;31.70;18.02;;;;;;;3.79;76.59;95836.28;5052126;28;20029;-72
2022/11/14 07:57:13;;;;;;;26.02;15.23;;;;;;;3.90;76.59;95835.84;5051705;28;20541;-71
2022/11/14 07:59:39;;;;;;;23.17;13.75;;;;;;;4.05;75.52;95842.09;5051926;28;20033;-72
2022/11/14 08:02:05;;;;;;;24.13;13.98;;;;;;;4.09;75.60;95837.66;5051647;28;20029;-71
2022/11/14 08:04:30;;;;;;;22.67;14.15;;;;;;;4.14;75.39;95831.41;5050310;28;20025;-72
2022/11/14 08:06:55;;;;;;;26.05;15.60;;;;;;;4.22;75.48;95838.81;5050321;28;20044;-72
2022/11/14 08:09:22;;;;;;;28.73;17.15;;;;;;;3.80;76.14;95788.28;5050361;28;20033;-72
2022/11/14 08:11:47;;;;;;;30.88;18.23;;;;;;;3.93;76.77;95835.72;5033735;28;20044;-72
2022/11/14 08:14:13;;;;;;;27.95;16.23;;;;;;;4.09;76.54;95829.94;5050178;28;20415;-72
2022/11/14 08:16:39;;;;;;;31.77;16.48;;;;;;;4.21;75.37;95826.88;5033538;28;20062;-72
2022/11/14 08:19:04;;;;;;;25.58;15.95;;;;;;;4.28;75.25;95833.41;5049880;28;20040;-71
2022/11/14 08:21:30;;;;;;;26.60;15.10;;;;;;;4.33;76.19;95831.50;5050074;28;20025;-72
2022/11/14 08:23:55;;;;;;;31.17;19.42;;;;;;;4.23;76.33;95825.06;5033388;28;20467;-72
2022/11/14 08:26:21;;;;;;;33.38;18.58;;;;;;;4.41;75.23;95829.44;5033390;28;20033;-72
2022/11/14 08:28:46;;;;;;;39.83;20.08;;;;;;;4.46;75.33;95824.94;5051338;28;20025;-72
2022/11/14 08:31:12;;;;;;;37.40;19.75;;;;;;;4.55;74.59;95828.03;5051124;28;20037;-72
2022/11/14 08:33:38;;;;;;;33.05;18.08;;;;;;;4.62;74.27;95821.69;5033436;28;20498;-72
2022/11/14 08:36:04;;;;;;;29.70;17.25;;;;;;;4.64;74.13;95818.16;5049912;28;20029;-72
2022/11/14 08:38:30;;;;;;;39.25;21.50;;;;;;;4.65;75.01;95819.84;5033296;28;20037;-72
2022/11/14 08:40:59;;;;;;;38.20;19.17;;;;;;;4.46;75.24;95791.50;5016717;28;20025;-72
2022/11/14 08:43:25;;;;;;;33.83;18.13;;;;;;;4.61;75.15;95800.28;5033221;28;20072;-72
2022/11/14 08:45:50;;;;;;;37.22;18.63;;;;;;;4.73;74.94;95823.81;5050843;28;20502;-72
2022/11/14 08:48:16;;;;;;;34.10;18.15;;;;;;;4.22;75.82;95815.69;5033249;28;20037;-72
2022/11/14 08:50:41;;;;;;;30.27;17.23;;;;;;;4.16;76.57;95813.38;5049635;28;20487;-72
2022/11/14 08:53:07;;;;;;;31.08;18.45;;;;;;;4.45;76.69;95815.53;5033061;28;20064;-72
2022/11/14 08:55:32;;;;;;;39.38;20.65;;;;;;;4.42;76.75;95784.78;5050794;28;20052;-72
2022/11/14 08:57:57;;;;;;;29.60;17.38;;;;;;;4.61;76.68;95809.72;5050754;28;20075;-72
2022/11/14 09:00:23;;;;;;;32.58;20.40;;;;;;;4.66;76.48;95782.88;5032853;28;20033;-72
2022/11/14 09:02:48;;;;;;;30.50;17.73;;;;;;;4.91;75.61;95803.22;5032901;28;20037;-72
2022/11/14 09:05:14;;;;;;;32.80;18.65;;;;;;;5.01;74.93;95788.19;5050706;28;20044;-72
2022/11/14 09:07:39;;;;;;;35.20;18.65;;;;;;;5.06;75.12;95793.13;5049400;28;20507;-72
2022/11/14 09:10:05;;;;;;;32.22;17.98;;;;;;;5.17;74.48;95783.19;5050622;28;20025;-72
2022/11/14 09:12:31;;;;;;;31.67;16.80;;;;;;;5.24;74.18;95784.56;5050604;28;20040;-72
2022/11/14 09:14:56;;;;;;;26.75;16.05;;;;;;;5.27;73.96;95768.97;5049288;28;20540;-69
2022/11/14 09:17:22;;;;;;;31.50;16.45;;;;;;;5.37;73.83;95775.34;5049379;28;20029;-69
2022/11/14 09:19:47;;;;;;;34.75;19.73;;;;;;;5.34;74.79;95775.50;5049407;28;20034;-70
2022/11/14 09:22:13;;;;;;;34.20;19.00;;;;;;;5.43;74.86;95763.09;5032843;28;20037;-72
2022/11/14 09:24:38;;;;;;;35.67;18.38;;;;;;;5.56;74.08;95766.75;5050825;28;20052;-71
2022/11/14 09:27:04;;;;;;;37.92;18.75;;;;;;;5.59;73.48;95758.88;5049209;28;20064;-70
2022/11/14 09:29:29;;;;;;;34.03;19.05;;;;;;;5.67;73.56;95758.50;5050307;28;20498;-70
2022/11/14 09:31:56;;;;;;;36.80;18.52;;;;;;;5.65;73.51;95755.16;5050307;28;20135;-70
2022/11/14 09:34:21;;;;;;;33.25;17.40;;;;;;;5.68;73.59;95749.84;5050764;28;20032;-70
2022/11/14 09:36:46;;;;;;;28.63;17.70;;;;;;;5.72;73.73;95746.22;5050400;28;20041;-70
2022/11/14 09:39:12;;;;;;;32.58;17.98;;;;;;;5.80;73.32;95744.94;5032540;28;20032;-70
2022/11/14 09:42:02;;;;;;;41.63;23.33;;;;;;;5.66;74.08;95751.69;5049137;28;20041;-69
2022/11/14 09:44:57;;;;;;;34.50;18.15;;;;;;;5.62;74.00;95753.56;5050681;28;20123;-70
2022/11/14 09:47:36;;;;;;;32.30;19.60;;;;;;;5.69;74.21;95748.97;5065798;28;20033;-70
2022/11/14 09:50:09;;;;;;;33.20;18.75;;;;;;;5.70;74.16;95754.03;5032908;28;20041;-70
2022/11/14 09:52:43;;;;;;;35.03;18.80;;;;;;;5.75;74.41;95743.50;5033213;28;20025;-70
2022/11/14 09:55:13;;;;;;;35.35;19.70;;;;;;;5.79;74.29;95734.69;5033484;28;20413;-70
2022/11/14 09:57:43;;;;;;;38.13;20.05;;;;;;;5.97;73.41;95744.13;5035674;28;20520;-70
2022/11/14 10:00:19;;;;;;;36.63;21.55;;;;;;;5.99;73.45;95744.03;5052646;28;20040;-70
2022/11/14 10:02:53;;;;;;;38.97;21.67;;;;;;;6.04;73.67;95735.19;5053811;28;20036;-70
2022/11/14 10:05:51;;;;;;;34.63;21.08;;;;;;;6.11;74.00;95735.72;5053837;28;20567;-70
2022/11/14 10:08:22;;;;;;;31.50;18.33;;;;;;;6.13;72.81;95720.13;5016532;28;20486;-70
2022/11/14 10:11:09;;;;;;;36.97;19.50;;;;;;;6.22;73.02;95728.25;5035853;28;20036;-70
2022/11/14 10:14:08;;;;;;;34.03;20.02;;;;;;;6.27;72.73;95717.72;5053877;28;20562;-70
2022/11/14 10:17:06;;;;;;;35.20;20.38;;;;;;;6.32;72.79;95720.84;5052396;28;20037;-70
2022/11/14 10:19:53;;;;;;;33.15;18.95;;;;;;;6.33;73.17;95709.63;5036347;28;20060;-70
2022/11/14 10:22:33;;;;;;;35.08;19.65;;;;;;;6.33;73.01;95703.66;5053590;28;20080;-70
2022/11/14 10:25:23;;;;;;;40.10;21.65;;;;;;;6.26;73.69;95701.38;5053627;28;20048;-70
2022/11/14 10:27:53;;;;;;;41.63;23.35;;;;;;;6.37;73.44;95699.97;5038241;28;20079;-70
2022/11/14 10:30:18;;;;;;;45.38;25.15;;;;;;;6.41;73.28;95691.19;5052242;28;20128;-70
2022/11/14 10:33:02;;;;;;;45.25;24.25;;;;;;;6.59;73.08;95694.53;5035278;28;20049;-70
2022/11/14 10:35:38;;;;;;;44.30;22.60;;;;;;;6.61;73.21;95688.38;5053269;28;20039;-70
2022/11/14 10:38:14;;;;;;;41.17;22.90;;;;;;;6.67;73.46;95677.72;5036477;28;20048;-70
2022/11/14 10:40:43;;;;;;;38.40;21.63;;;;;;;6.66;72.97;95650.22;5051854;28;20084;-70
2022/11/14 10:43:38;;;;;;;49.50;24.90;;;;;;;6.71;72.82;95671.47;5051893;28;20060;-70
2022/11/14 10:46:16;;;;;;;45.08;24.13;;;;;;;6.84;72.52;95663.88;5051897;28;20041;-70
2022/11/14 10:48:47;;;;;;;44.15;23.17;;;;;;;6.98;72.10;95665.72;5036328;28;20052;-70
2022/11/14 10:51:18;;;;;;;41.70;22.00;;;;;;;7.05;71.84;95664.47;5035734;28;20112;-70
2022/11/14 10:53:54;;;;;;;49.33;25.48;;;;;;;7.12;71.05;95660.59;5051819;28;20033;-70
2022/11/14 10:56:20;;;;;;;44.00;23.02;;;;;;;7.16;71.42;95658.72;5051918;28;20045;-70
2022/11/14 10:58:45;;;;;;;42.08;24.65;;;;;;;7.11;72.01;95646.03;5051570;28;20506;-71
2022/11/14 11:01:49;;;;;;;47.70;25.88;;;;;;;7.22;72.49;95647.19;5051593;28;20032;-71
2022/11/14 11:04:18;;;;;;;43.63;24.27;;;;;;;7.34;71.73;95643.91;5010668;28;20026;-71
2022/11/14 11:06:44;;;;;;;43.58;24.27;;;;;;;7.31;72.17;95631.16;5045475;28;20551;-72
2022/11/14 11:12:00;;;;;;;39.90;22.95;;;;;;;7.63;71.30;95631.03;5052604;28;20048;-71
2022/11/14 11:14:25;;;;;;;36.35;20.63;;;;;;;7.79;69.91;95624.06;5035209;28;20029;-71
2022/11/14 11:17:07;;;;;;;37.83;21.58;;;;;;;7.81;69.72;95619.63;5051316;28;20459;-71
2022/11/14 11:19:32;;;;;;;35.92;21.70;;;;;;;7.89;69.70;95617.44;5051333;28;20032;-71
2022/11/14 11:21:57;;;;;;;33.17;20.40;;;;;;;8.12;69.14;95617.81;5052437;28;20491;-71
2022/11/14 11:24:31;;;;;;;34.05;19.55;;;;;;;8.25;68.64;95626.50;5052696;28;20469;-71
2022/11/14 11:27:13;;;;;;;38.08;20.67;;;;;;;8.29;68.45;95625.38;5034497;28;20037;-71
2022/11/14 11:29:39;;;;;;;36.75;20.80;;;;;;;8.25;68.74;95613.56;5050793;28;20423;-71
2022/11/14 11:32:05;;;;;;;33.95;19.85;;;;;;;8.37;69.06;95606.78;5051030;28;20085;-71